Shiseimaru — JD2936 — position and weather

sailwx.info

Track history (hours):
 
Tides and Currents Weather Stations Pressure Air Temp Water Temp Dewpoint Dewpoint Depression Visibility Wind Speed Wind Dir Waves Ship Positions

Shiseimaru

Last reported at 2018-Feb-17 20:00 UTC. Time now 2018-Feb-17 20:12 UTC.
Position N 33°60' E 132°45'.

Length 73 m; draft 4.1 m.

Type: Cargo ship. MMSI: 431001029.

Date/timePositionNaut miles runAvg speedWind from/ knotsBaromVisibWave heightAir tempDewpointWater temp
2018-Feb-17 20:00N 33°60' E 132°45'4 8.9
2018-Feb-17 19:30N 33°56' E 132°42'5 8.6
2018-Feb-17 18:58N 33°54' E 132°37'11 9.4
2018-Feb-17 17:47N 33°50' E 132°24'2 9.1
2018-Feb-17 17:30N 33°50' E 132°21'5 9.8
2018-Feb-17 17:00N 33°50' E 132°15'9 9.6
2018-Feb-17 16:05N 33°46' E 132°06'210.5
2018-Feb-17 15:56N 33°45' E 132°04'510.9
2018-Feb-17 15:28N 33°45' E 131°58'511.1
2018-Feb-17 15:00N 33°46' E 131°52'611.5
2018-Feb-17 14:30N 33°47' E 131°45'611.4
2018-Feb-17 14:00N 33°48' E 131°38'611.1
2018-Feb-17 13:30N 33°49' E 131°32'510.8
2018-Feb-17 13:00N 33°50' E 131°25'510.5
2018-Feb-17 12:30N 33°52' E 131°19'510.1
2018-Feb-17 12:00N 33°53' E 131°13'510.1
2018-Feb-17 11:30N 33°55' E 131°08'510.3
2018-Feb-17 11:00N 33°58' E 131°03'5 9.1
2018-Feb-17 10:30N 33°57' E 130°57'4 8.0
2018-Feb-17 10:00N 33°55' E 130°53'4 7.6
2018-Feb-17 09:31N 33°54' E 130°49'3 6.5
2018-Feb-17 09:00N 33°53' E 130°45'0 0.0
2018-Feb-17 08:28N 33°53' E 130°45'0 0.0
2018-Feb-17 07:58N 33°53' E 130°45'0 0.1
2018-Feb-17 07:28N 33°53' E 130°45'0 0.3
2018-Feb-17 06:58N 33°53' E 130°45'0 0.0
2018-Feb-17 06:28N 33°53' E 130°45'0 0.0
2018-Feb-17 05:55N 33°53' E 130°45'0 0.0
2018-Feb-17 05:28N 33°53' E 130°45'0 0.0
2018-Feb-17 04:58N 33°53' E 130°45'0 0.0
2018-Feb-17 04:28N 33°53' E 130°45'0 0.0
2018-Feb-17 03:58N 33°53' E 130°45'0 0.0
2018-Feb-17 03:25N 33°53' E 130°45'0 0.0
2018-Feb-17 02:58N 33°53' E 130°45'0 0.0
2018-Feb-17 02:28N 33°53' E 130°45'0 0.0
2018-Feb-17 01:58N 33°53' E 130°45'0 0.0
2018-Feb-17 01:25N 33°53' E 130°45'0 0.1
2018-Feb-17 00:59N 33°53' E 130°45'0 0.1
2018-Feb-17 00:29N 33°53' E 130°45'0 0.0
2018-Feb-16 23:59N 33°53' E 130°45'0 0.0
2018-Feb-16 23:29N 33°53' E 130°45'0 0.0
2018-Feb-16 22:59N 33°53' E 130°45'0 0.0
2018-Feb-16 22:29N 33°53' E 130°45'0 0.0
2018-Feb-16 21:59N 33°53' E 130°45'0 0.1
2018-Feb-16 21:29N 33°53' E 130°45'0 0.0
2018-Feb-16 20:59N 33°53' E 130°45'0 0.0
2018-Feb-16 20:29N 33°53' E 130°45'0 0.0
2018-Feb-16 19:59N 33°53' E 130°45'0 0.0
2018-Feb-16 19:26N 33°53' E 130°45'0 0.0
2018-Feb-16 18:59N 33°53' E 130°45'0 0.0
2018-Feb-16 18:29N 33°53' E 130°45'0 0.0
2018-Feb-16 17:59N 33°53' E 130°45'0 0.0
2018-Feb-16 17:29N 33°53' E 130°45'0 0.0
2018-Feb-16 16:59N 33°53' E 130°45'0 0.0
2018-Feb-16 16:23N 33°53' E 130°45'0 0.0
2018-Feb-16 15:59N 33°53' E 130°45'0 0.0
2018-Feb-16 15:29N 33°53' E 130°45'0 0.0
2018-Feb-16 14:59N 33°53' E 130°45'0 0.0
2018-Feb-16 14:29N 33°53' E 130°45'0 0.0
2018-Feb-16 13:59N 33°53' E 130°45'0 0.0
2018-Feb-16 13:29N 33°53' E 130°45'0 0.0
2018-Feb-16 12:59N 33°53' E 130°45'0 0.0
2018-Feb-16 12:29N 33°53' E 130°45'0 0.0
2018-Feb-16 11:59N 33°53' E 130°45'0 0.0
2018-Feb-16 11:29N 33°53' E 130°45'0 0.0
2018-Feb-16 10:59N 33°53' E 130°45'0 0.0
2018-Feb-16 10:29N 33°53' E 130°45'0 0.0
2018-Feb-16 09:59N 33°53' E 130°45'0 0.0
2018-Feb-16 09:26N 33°53' E 130°45'0 0.0
2018-Feb-16 08:59N 33°53' E 130°45'0 0.0
2018-Feb-16 08:29N 33°53' E 130°45'0 0.0
2018-Feb-16 07:59N 33°53' E 130°45'0 0.0
2018-Feb-16 07:29N 33°53' E 130°45'0 0.0
2018-Feb-16 06:59N 33°53' E 130°45'0 0.0
2018-Feb-16 06:29N 33°53' E 130°45'0 0.0
2018-Feb-16 05:56N 33°53' E 130°45'0 0.0
2018-Feb-16 05:29N 33°53' E 130°45'0 0.0
2018-Feb-16 04:44N 33°53' E 130°45'0 0.1
2018-Feb-16 04:30N 33°53' E 130°45'3 6.8
2018-Feb-16 04:00N 33°54' E 130°49'4 8.1
2018-Feb-16 03:31N 33°55' E 130°54'4 8.3
2018-Feb-16 03:00N 33°58' E 130°57'5 9.8
2018-Feb-16 02:31N 33°57' E 131°03'1 2.1
2018-Feb-16 01:59N 33°56' E 131°03'0 0.0
2018-Feb-16 01:28N 33°56' E 131°03'0 0.0
2018-Feb-16 00:55N 33°56' E 131°03'0 0.0
2018-Feb-16 00:31N 33°56' E 131°03'0 0.0
2018-Feb-15 23:58N 33°56' E 131°03'0 0.0
2018-Feb-15 23:19N 33°56' E 131°03'0 0.1
2018-Feb-15 22:58N 33°56' E 131°03'0 0.4
2018-Feb-15 22:30N 33°56' E 131°03'612.2
2018-Feb-15 22:00N 33°52' E 131°10'612.6
2018-Feb-15 21:30N 33°51' E 131°17'612.4
2018-Feb-15 21:00N 33°49' E 131°24'612.3
2018-Feb-15 20:30N 33°48' E 131°31'612.4
2018-Feb-15 20:00N 33°47' E 131°39'612.1
2018-Feb-15 19:30N 33°46' E 131°46'611.9
2018-Feb-15 19:00N 33°45' E 131°53'611.5
2018-Feb-15 18:30N 33°46' E 132°00'712.0
2018-Feb-15 17:56N 33°48' E 132°08'512.2
2018-Feb-15 17:29N 33°50' E 132°14'612.5
2018-Feb-15 16:58N 33°50' E 132°22'612.5
2018-Feb-15 16:30N 33°54' E 132°27'713.1
2018-Feb-15 16:00N 33°58' E 132°33'613.1
2018-Feb-15 15:31N 34°03' E 132°38'72 2.9
2018-Feb-14 14:56N 34°26' E 134°01'7 8.9
2018-Feb-14 14:10N 34°26' E 134°09'210.0
2018-Feb-14 13:56N 34°25' E 134°12'510.5
2018-Feb-14 13:29N 34°23' E 134°17'510.8
2018-Feb-14 13:00N 34°21' E 134°23'510.9
2018-Feb-14 12:30N 34°19' E 134°29'511.2
2018-Feb-14 12:01N 34°17' E 134°35'510.5
2018-Feb-14 11:30N 34°13' E 134°40'611.3
2018-Feb-14 10:57N 34°08' E 134°45'511.1
2018-Feb-14 10:31N 34°05' E 134°48'611.1
2018-Feb-14 09:59N 33°60' E 134°53'511.2
2018-Feb-14 09:30N 33°56' E 134°57'510.8
2018-Feb-14 09:00N 33°52' E 135°01'121 7.8
2018-Feb-13 17:29N 34°43' E 137°14'1 0.1
2018-Feb-13 02:02N 34°43' E 137°15'010.9
2018-Feb-13 02:00N 34°43' E 137°14'1 0.0
2018-Feb-11 08:03N 34°43' E 137°14'0 0.4
2018-Feb-11 08:00N 34°43' E 137°14'4 7.7
2018-Feb-11 07:29N 34°44' E 137°18'1 0.0
2018-Feb-09 23:13N 34°44' E 137°19'2 8.0
2018-Feb-09 22:58N 34°44' E 137°17'2 9.8
2018-Feb-09 22:45N 34°44' E 137°14'89 3.4
2018-Feb-08 20:30N 34°40' E 139°02'  
Track history (hours):
 
Tides and Currents Weather Stations Pressure Air Temp Water Temp Dewpoint Dewpoint Depression Visibility Wind Speed Wind Dir Waves Ship Positions

Shiseimaru

Last reported at 2018-Feb-17 20:00 UTC. Time now 2018-Feb-17 20:12 UTC.
Position N 33°60' E 132°45'.

Length 73 m; draft 4.1 m.

Type: Cargo ship. MMSI: 431001029.

Date/timePositionNaut miles runAvg speedWind from/ knotsBaromVisibWave heightAir tempDewpointWater temp
2018-Feb-17 20:00N 33°60' E 132°45'4 8.9
2018-Feb-17 19:30N 33°56' E 132°42'5 8.6
2018-Feb-17 18:58N 33°54' E 132°37'11 9.4
2018-Feb-17 17:47N 33°50' E 132°24'2 9.1
2018-Feb-17 17:30N 33°50' E 132°21'5 9.8
2018-Feb-17 17:00N 33°50' E 132°15'9 9.6
2018-Feb-17 16:05N 33°46' E 132°06'210.5
2018-Feb-17 15:56N 33°45' E 132°04'510.9
2018-Feb-17 15:28N 33°45' E 131°58'511.1
2018-Feb-17 15:00N 33°46' E 131°52'611.5
2018-Feb-17 14:30N 33°47' E 131°45'611.4
2018-Feb-17 14:00N 33°48' E 131°38'611.1
2018-Feb-17 13:30N 33°49' E 131°32'510.8
2018-Feb-17 13:00N 33°50' E 131°25'510.5
2018-Feb-17 12:30N 33°52' E 131°19'510.1
2018-Feb-17 12:00N 33°53' E 131°13'510.1
2018-Feb-17 11:30N 33°55' E 131°08'510.3
2018-Feb-17 11:00N 33°58' E 131°03'5 9.1
2018-Feb-17 10:30N 33°57' E 130°57'4 8.0
2018-Feb-17 10:00N 33°55' E 130°53'4 7.6
2018-Feb-17 09:31N 33°54' E 130°49'3 6.5
2018-Feb-17 09:00N 33°53' E 130°45'0 0.0
2018-Feb-17 08:28N 33°53' E 130°45'0 0.0
2018-Feb-17 07:58N 33°53' E 130°45'0 0.1
2018-Feb-17 07:28N 33°53' E 130°45'0 0.3
2018-Feb-17 06:58N 33°53' E 130°45'0 0.0
2018-Feb-17 06:28N 33°53' E 130°45'0 0.0
2018-Feb-17 05:55N 33°53' E 130°45'0 0.0
2018-Feb-17 05:28N 33°53' E 130°45'0 0.0
2018-Feb-17 04:58N 33°53' E 130°45'0 0.0
2018-Feb-17 04:28N 33°53' E 130°45'0 0.0
2018-Feb-17 03:58N 33°53' E 130°45'0 0.0
2018-Feb-17 03:25N 33°53' E 130°45'0 0.0
2018-Feb-17 02:58N 33°53' E 130°45'0 0.0
2018-Feb-17 02:28N 33°53' E 130°45'0 0.0
2018-Feb-17 01:58N 33°53' E 130°45'0 0.0
2018-Feb-17 01:25N 33°53' E 130°45'0 0.1
2018-Feb-17 00:59N 33°53' E 130°45'0 0.1
2018-Feb-17 00:29N 33°53' E 130°45'0 0.0
2018-Feb-16 23:59N 33°53' E 130°45'0 0.0
2018-Feb-16 23:29N 33°53' E 130°45'0 0.0
2018-Feb-16 22:59N 33°53' E 130°45'0 0.0
2018-Feb-16 22:29N 33°53' E 130°45'0 0.0
2018-Feb-16 21:59N 33°53' E 130°45'0 0.1
2018-Feb-16 21:29N 33°53' E 130°45'0 0.0
2018-Feb-16 20:59N 33°53' E 130°45'0 0.0
2018-Feb-16 20:29N 33°53' E 130°45'0 0.0
2018-Feb-16 19:59N 33°53' E 130°45'0 0.0
2018-Feb-16 19:26N 33°53' E 130°45'0 0.0
2018-Feb-16 18:59N 33°53' E 130°45'0 0.0
2018-Feb-16 18:29N 33°53' E 130°45'0 0.0
2018-Feb-16 17:59N 33°53' E 130°45'0 0.0
2018-Feb-16 17:29N 33°53' E 130°45'0 0.0
2018-Feb-16 16:59N 33°53' E 130°45'0 0.0
2018-Feb-16 16:23N 33°53' E 130°45'0 0.0
2018-Feb-16 15:59N 33°53' E 130°45'0 0.0
2018-Feb-16 15:29N 33°53' E 130°45'0 0.0
2018-Feb-16 14:59N 33°53' E 130°45'0 0.0
2018-Feb-16 14:29N 33°53' E 130°45'0 0.0
2018-Feb-16 13:59N 33°53' E 130°45'0 0.0
2018-Feb-16 13:29N 33°53' E 130°45'0 0.0
2018-Feb-16 12:59N 33°53' E 130°45'0 0.0
2018-Feb-16 12:29N 33°53' E 130°45'0 0.0
2018-Feb-16 11:59N 33°53' E 130°45'0 0.0
2018-Feb-16 11:29N 33°53' E 130°45'0 0.0
2018-Feb-16 10:59N 33°53' E 130°45'0 0.0
2018-Feb-16 10:29N 33°53' E 130°45'0 0.0
2018-Feb-16 09:59N 33°53' E 130°45'0 0.0
2018-Feb-16 09:26N 33°53' E 130°45'0 0.0
2018-Feb-16 08:59N 33°53' E 130°45'0 0.0
2018-Feb-16 08:29N 33°53' E 130°45'0 0.0
2018-Feb-16 07:59N 33°53' E 130°45'0 0.0
2018-Feb-16 07:29N 33°53' E 130°45'0 0.0
2018-Feb-16 06:59N 33°53' E 130°45'0 0.0
2018-Feb-16 06:29N 33°53' E 130°45'0 0.0
2018-Feb-16 05:56N 33°53' E 130°45'0 0.0
2018-Feb-16 05:29N 33°53' E 130°45'0 0.0
2018-Feb-16 04:44N 33°53' E 130°45'0 0.1
2018-Feb-16 04:30N 33°53' E 130°45'3 6.8
2018-Feb-16 04:00N 33°54' E 130°49'4 8.1
2018-Feb-16 03:31N 33°55' E 130°54'4 8.3
2018-Feb-16 03:00N 33°58' E 130°57'5 9.8
2018-Feb-16 02:31N 33°57' E 131°03'1 2.1
2018-Feb-16 01:59N 33°56' E 131°03'0 0.0
2018-Feb-16 01:28N 33°56' E 131°03'0 0.0
2018-Feb-16 00:55N 33°56' E 131°03'0 0.0
2018-Feb-16 00:31N 33°56' E 131°03'0 0.0
2018-Feb-15 23:58N 33°56' E 131°03'0 0.0
2018-Feb-15 23:19N 33°56' E 131°03'0 0.1
2018-Feb-15 22:58N 33°56' E 131°03'0 0.4
2018-Feb-15 22:30N 33°56' E 131°03'612.2
2018-Feb-15 22:00N 33°52' E 131°10'612.6
2018-Feb-15 21:30N 33°51' E 131°17'612.4
2018-Feb-15 21:00N 33°49' E 131°24'612.3
2018-Feb-15 20:30N 33°48' E 131°31'612.4
2018-Feb-15 20:00N 33°47' E 131°39'612.1
2018-Feb-15 19:30N 33°46' E 131°46'611.9
2018-Feb-15 19:00N 33°45' E 131°53'611.5
2018-Feb-15 18:30N 33°46' E 132°00'712.0
2018-Feb-15 17:56N 33°48' E 132°08'512.2
2018-Feb-15 17:29N 33°50' E 132°14'612.5
2018-Feb-15 16:58N 33°50' E 132°22'612.5
2018-Feb-15 16:30N 33°54' E 132°27'713.1
2018-Feb-15 16:00N 33°58' E 132°33'613.1
2018-Feb-15 15:31N 34°03' E 132°38'72 2.9
2018-Feb-14 14:56N 34°26' E 134°01'7 8.9
2018-Feb-14 14:10N 34°26' E 134°09'210.0
2018-Feb-14 13:56N 34°25' E 134°12'510.5
2018-Feb-14 13:29N 34°23' E 134°17'510.8
2018-Feb-14 13:00N 34°21' E 134°23'510.9
2018-Feb-14 12:30N 34°19' E 134°29'511.2
2018-Feb-14 12:01N 34°17' E 134°35'510.5
2018-Feb-14 11:30N 34°13' E 134°40'611.3
2018-Feb-14 10:57N 34°08' E 134°45'511.1
2018-Feb-14 10:31N 34°05' E 134°48'611.1
2018-Feb-14 09:59N 33°60' E 134°53'511.2
2018-Feb-14 09:30N 33°56' E 134°57'510.8
2018-Feb-14 09:00N 33°52' E 135°01'121 7.8
2018-Feb-13 17:29N 34°43' E 137°14'1 0.1
2018-Feb-13 02:02N 34°43' E 137°15'010.9
2018-Feb-13 02:00N 34°43' E 137°14'1 0.0
2018-Feb-11 08:03N 34°43' E 137°14'0 0.4
2018-Feb-11 08:00N 34°43' E 137°14'4 7.7
2018-Feb-11 07:29N 34°44' E 137°18'1 0.0
2018-Feb-09 23:13N 34°44' E 137°19'2 8.0
2018-Feb-09 22:58N 34°44' E 137°17'2 9.8
2018-Feb-09 22:45N 34°44' E 137°14'89 3.4
2018-Feb-08 20:30N 34°40' E 139°02'  

Dump ship's entire track history